Time;durP1;ratioP1;P1;durP2;ratioP2;P2;SDS_P1;SDS_P2;PMS_P1;PMS_P2;Temp;Humidity;BMP_temperature;BMP_pressure;BME280_temperature;BME280_humidity;BME280_pressure;Samples;Min_cycle;Max_cycle;Signal;HPM_P1;HPM_P2
2022/11/26 00:01:18;;;;;;;16.23;10.55;;;;;;;;;;5075130;28;20046;-69
2022/11/26 00:03:45;;;;;;;17.00;10.50;;;;;;;;;;5075475;28;20024;-64
2022/11/26 00:06:35;;;;;;;16.55;10.30;;;;;;;;;;5075052;28;20082;-70
2022/11/26 00:09:03;;;;;;;18.00;11.05;;;;;;;;;;5057118;28;20035;-69
2022/11/26 00:11:29;;;;;;;17.25;10.70;;;;;;;;;;5075283;28;20031;-66
2022/11/26 00:13:55;;;;;;;17.02;10.75;;;;;;;;;;5074903;28;20380;-65
2022/11/26 00:16:20;;;;;;;16.83;11.00;;;;;;;;;;5075241;28;20031;-70
2022/11/26 00:18:46;;;;;;;14.23;9.85;;;;;;;;;;5074884;28;20588;-66
2022/11/26 00:21:19;;;;;;;15.50;11.20;;;;;;;;;;5074914;28;20024;-69
2022/11/26 00:23:45;;;;;;;17.98;10.73;;;;;;;;;;5074877;28;20017;-65
2022/11/26 00:26:16;;;;;;;17.35;10.70;;;;;;;;;;5074743;28;20028;-67
2022/11/26 00:28:49;;;;;;;16.10;10.20;;;;;;;;;;5074652;28;20028;-66
2022/11/26 00:31:15;;;;;;;16.88;11.00;;;;;;;;;;5074693;28;20103;-70
2022/11/26 00:33:40;;;;;;;19.83;10.38;;;;;;;;;;5074915;28;20112;-66
2022/11/26 00:36:14;;;;;;;17.13;10.52;;;;;;;;;;5074654;28;20494;-69
2022/11/26 00:38:40;;;;;;;16.55;11.02;;;;;;;;;;5074540;28;20033;-68
2022/11/26 00:41:18;;;;;;;18.30;10.85;;;;;;;;;;5074550;28;20033;-69
2022/11/26 00:43:44;;;;;;;17.85;10.73;;;;;;;;;;5074506;28;20028;-70
2022/11/26 00:46:20;;;;;;;15.52;10.35;;;;;;;;;;5074440;28;20476;-67
2022/11/26 00:48:46;;;;;;;15.15;10.10;;;;;;;;;;5074320;28;20087;-67
2022/11/26 00:51:19;;;;;;;16.23;10.73;;;;;;;;;;5074578;28;20037;-66
2022/11/26 00:53:46;;;;;;;18.05;10.40;;;;;;;;;;5056436;28;20023;-69
2022/11/26 00:56:18;;;;;;;16.40;10.40;;;;;;;;;;5074194;28;20078;-66
2022/11/26 00:58:45;;;;;;;17.42;10.52;;;;;;;;;;5074243;28;20063;-62
2022/11/26 01:01:13;;;;;;;17.02;10.57;;;;;;;;;;5074136;28;20036;-61
2022/11/26 01:03:41;;;;;;;16.85;10.50;;;;;;;;;;5073169;28;20025;-67
2022/11/26 01:06:16;;;;;;;15.77;10.73;;;;;;;;;;5074366;28;20025;-67
2022/11/26 01:08:42;;;;;;;16.60;10.40;;;;;;;;;;5074161;28;20111;-61
2022/11/26 01:11:12;;;;;;;15.45;10.60;;;;;;;;;;5074122;28;20017;-66
2022/11/26 01:13:37;;;;;;;15.73;10.60;;;;;;;;;;5073822;28;20515;-60
2022/11/26 01:16:20;;;;;;;14.48;10.63;;;;;;;;;;5073522;28;20278;-61
2022/11/26 01:18:46;;;;;;;16.75;10.18;;;;;;;;;;5073709;28;20047;-61
2022/11/26 01:21:12;;;;;;;15.43;10.65;;;;;;;;;;5073616;28;20029;-62
2022/11/26 01:23:38;;;;;;;18.27;10.68;;;;;;;;;;5073896;28;20024;-61
2022/11/26 01:26:05;;;;;;;16.77;10.45;;;;;;;;;;5073635;28;20029;-61
2022/11/26 01:28:30;;;;;;;16.15;10.65;;;;;;;;;;5073380;28;20024;-60
2022/11/26 01:30:56;;;;;;;19.20;10.98;;;;;;;;;;5073462;28;20101;-62
2022/11/26 01:33:21;;;;;;;14.65;10.27;;;;;;;;;;5073662;28;20472;-61
2022/11/26 01:35:47;;;;;;;17.42;11.07;;;;;;;;;;5073231;28;20468;-61
2022/11/26 01:38:14;;;;;;;16.52;10.48;;;;;;;;;;5073310;28;20107;-62
2022/11/26 01:41:29;;;;;;;16.55;10.48;;;;;;;;;;5073382;28;20024;-61
2022/11/26 01:43:56;;;;;;;17.65;10.27;;;;;;;;;;5052663;28;20076;-62
2022/11/26 01:46:22;;;;;;;14.15;9.45;;;;;;;;;;5073245;28;20024;-60
2022/11/26 01:48:48;;;;;;;14.57;10.20;;;;;;;;;;5073109;28;20380;-61
2022/11/26 01:51:20;;;;;;;15.23;9.93;;;;;;;;;;5073141;28;20081;-61
2022/11/26 01:53:50;;;;;;;16.10;9.98;;;;;;;;;;5073346;28;20063;-61
2022/11/26 01:56:34;;;;;;;15.93;10.57;;;;;;;;;;5073263;28;20141;-61
2022/11/26 01:59:15;;;;;;;14.75;10.00;;;;;;;;;;5072942;28;20032;-61
2022/11/26 02:01:41;;;;;;;15.50;10.68;;;;;;;;;;5072951;28;20036;-61
2022/11/26 02:04:18;;;;;;;13.32;9.73;;;;;;;;;;5073179;28;20028;-60
2022/11/26 02:06:46;;;;;;;15.75;10.70;;;;;;;;;;5072930;28;20027;-60
2022/11/26 02:09:13;;;;;;;15.50;9.70;;;;;;;;;;5072693;28;20028;-61
2022/11/26 02:11:38;;;;;;;16.08;9.82;;;;;;;;;;5073031;28;20044;-61
2022/11/26 02:14:23;;;;;;;15.75;10.25;;;;;;;;;;5072633;28;20507;-60
2022/11/26 02:16:53;;;;;;;14.93;9.93;;;;;;;;;;5072976;28;20042;-61
2022/11/26 02:19:56;;;;;;;16.60;10.10;;;;;;;;;;5072618;28;20024;-61
2022/11/26 02:22:49;;;;;;;15.10;9.63;;;;;;;;;;5072829;28;20415;-61
2022/11/26 02:25:44;;;;;;;15.65;9.57;;;;;;;;;;5072621;28;20400;-62
2022/11/26 02:28:42;;;;;;;14.45;9.82;;;;;;;;;;5072556;28;20048;-60
2022/11/26 02:31:11;;;;;;;16.00;9.88;;;;;;;;;;5072474;28;20029;-64
2022/11/26 02:33:51;;;;;;;15.00;9.68;;;;;;;;;;5072400;28;20032;-64
2022/11/26 02:36:41;;;;;;;13.25;8.82;;;;;;;;;;5055268;28;20636;-70
2022/11/26 02:39:13;;;;;;;16.70;10.48;;;;;;;;;;5072777;28;20033;-64
2022/11/26 02:41:47;;;;;;;13.75;9.43;;;;;;;;;;5072608;28;20380;-66
2022/11/26 02:44:16;;;;;;;14.15;9.70;;;;;;;;;;5072609;28;20372;-65
2022/11/26 02:46:44;;;;;;;14.68;9.90;;;;;;;;;;5072207;28;20101;-66
2022/11/26 02:49:13;;;;;;;14.73;9.82;;;;;;;;;;5072439;28;20028;-66
2022/11/26 02:51:39;;;;;;;14.48;9.55;;;;;;;;;;5072257;28;20491;-64
2022/11/26 02:54:06;;;;;;;13.82;9.57;;;;;;;;;;5072116;28;20023;-65
2022/11/26 02:56:32;;;;;;;16.52;10.00;;;;;;;;;;5072143;28;20028;-60
2022/11/26 02:58:58;;;;;;;15.52;9.63;;;;;;;;;;5072062;28;20030;-62
2022/11/26 03:01:34;;;;;;;13.45;9.07;;;;;;;;;;5072069;28;20099;-61
2022/11/26 03:04:06;;;;;;;14.68;9.43;;;;;;;;;;5072336;28;20032;-61
2022/11/26 03:06:33;;;;;;;16.17;9.90;;;;;;;;;;5072101;28;20465;-61
2022/11/26 03:08:59;;;;;;;14.18;9.43;;;;;;;;;;5071954;28;20071;-60
2022/11/26 03:11:26;;;;;;;14.85;9.95;;;;;;;;;;5072214;28;20028;-61
2022/11/26 03:13:51;;;;;;;14.70;9.30;;;;;;;;;;5072102;28;20063;-61
2022/11/26 03:16:17;;;;;;;13.48;9.07;;;;;;;;;;5071810;28;20045;-61
2022/11/26 03:18:42;;;;;;;14.73;9.60;;;;;;;;;;5071996;28;20027;-63
2022/11/26 03:21:08;;;;;;;13.52;9.00;;;;;;;;;;5072097;28;20025;-64
2022/11/26 03:23:34;;;;;;;14.02;9.48;;;;;;;;;;5072011;28;20025;-66
2022/11/26 03:25:59;;;;;;;16.50;9.82;;;;;;;;;;5073176;28;20078;-64
2022/11/26 03:28:25;;;;;;;12.50;8.93;;;;;;;;;;5075924;28;20234;-65
2022/11/26 03:30:51;;;;;;;13.07;9.40;;;;;;;;;;5076102;28;20027;-66
2022/11/26 03:33:17;;;;;;;13.50;9.27;;;;;;;;;;5075940;28;20031;-65
2022/11/26 03:35:43;;;;;;;12.38;9.02;;;;;;;;;;5075790;28;20032;-67
2022/11/26 03:38:08;;;;;;;12.85;9.35;;;;;;;;;;5075612;28;20503;-65
2022/11/26 03:40:34;;;;;;;12.70;9.13;;;;;;;;;;5075675;28;20032;-66
2022/11/26 03:42:59;;;;;;;14.65;10.20;;;;;;;;;;5075800;28;20357;-65
2022/11/26 03:45:25;;;;;;;14.23;9.68;;;;;;;;;;5075563;28;20027;-64
2022/11/26 03:47:50;;;;;;;14.32;9.25;;;;;;;;;;5075486;28;20452;-64
2022/11/26 03:50:16;;;;;;;12.60;9.57;;;;;;;;;;5075354;28;20086;-60
2022/11/26 03:52:41;;;;;;;13.85;9.57;;;;;;;;;;5075372;28;20025;-61
2022/11/26 03:55:08;;;;;;;13.00;9.60;;;;;;;;;;5075603;28;20041;-62
2022/11/26 03:57:33;;;;;;;12.02;9.13;;;;;;;;;;5075258;28;20078;-62
2022/11/26 03:59:59;;;;;;;14.88;9.27;;;;;;;;;;5075296;28;20020;-67
2022/11/26 04:02:24;;;;;;;13.07;8.52;;;;;;;;;;5075233;28;20078;-66
2022/11/26 04:04:50;;;;;;;13.07;9.15;;;;;;;;;;5075143;28;20028;-68
2022/11/26 04:07:15;;;;;;;14.23;9.07;;;;;;;;;;5075052;28;20028;-65
2022/11/26 04:09:41;;;;;;;12.82;9.15;;;;;;;;;;5075189;28;20039;-64
2022/11/26 04:12:06;;;;;;;13.75;8.82;;;;;;;;;;5057210;28;20384;-65
2022/11/26 04:14:32;;;;;;;12.93;8.68;;;;;;;;;;5074720;28;20032;-64
2022/11/26 04:16:57;;;;;;;13.50;8.70;;;;;;;;;;5074890;28;20056;-66
2022/11/26 04:19:23;;;;;;;11.48;8.68;;;;;;;;;;5074893;28;20074;-66
2022/11/26 04:21:48;;;;;;;14.73;9.07;;;;;;;;;;5074856;28;20031;-67
2022/11/26 04:24:14;;;;;;;12.05;8.75;;;;;;;;;;5075079;28;20027;-64
2022/11/26 04:26:40;;;;;;;11.68;8.77;;;;;;;;;;5074788;28;20029;-64
2022/11/26 04:29:05;;;;;;;12.60;8.70;;;;;;;;;;5074936;28;20029;-64
2022/11/26 04:31:31;;;;;;;15.52;9.45;;;;;;;;;;5074822;28;20138;-65
2022/11/26 04:33:56;;;;;;;13.10;8.60;;;;;;;;;;5074684;28;20525;-65
2022/11/26 04:36:22;;;;;;;12.05;8.85;;;;;;;;;;5074517;28;20036;-65
2022/11/26 04:38:48;;;;;;;13.95;9.00;;;;;;;;;;5073415;28;20029;-65
2022/11/26 04:41:13;;;;;;;12.82;9.35;;;;;;;;;;5074525;28;20067;-66
2022/11/26 04:43:39;;;;;;;13.27;8.70;;;;;;;;;;5074750;28;20017;-60
2022/11/26 04:46:05;;;;;;;12.82;9.02;;;;;;;;;;5074438;28;20384;-63
2022/11/26 04:48:30;;;;;;;12.23;8.88;;;;;;;;;;5074626;28;20027;-61
2022/11/26 04:50:56;;;;;;;12.50;8.77;;;;;;;;;;5074342;28;20028;-62
2022/11/26 04:53:21;;;;;;;13.15;8.27;;;;;;;;;;5074606;28;20150;-64
2022/11/26 04:55:48;;;;;;;11.95;8.65;;;;;;;;;;5071165;28;20032;-62
2022/11/26 04:58:15;;;;;;;11.48;8.38;;;;;;;;;;5069752;28;20052;-62
2022/11/26 05:00:41;;;;;;;12.00;8.75;;;;;;;;;;5069591;28;20484;-62
2022/11/26 05:03:06;;;;;;;11.95;8.60;;;;;;;;;;5069348;28;20043;-69
2022/11/26 05:05:32;;;;;;;12.25;8.93;;;;;;;;;;5068123;28;20021;-67
2022/11/26 05:07:57;;;;;;;10.55;8.23;;;;;;;;;;5072645;28;20025;-66
2022/11/26 05:10:23;;;;;;;12.50;8.57;;;;;;;;;;5072665;28;20028;-60
2022/11/26 05:12:48;;;;;;;12.57;8.95;;;;;;;;;;5072578;28;20514;-62
2022/11/26 05:15:14;;;;;;;12.50;8.38;;;;;;;;;;5072763;28;20127;-68
2022/11/26 05:17:39;;;;;;;14.57;8.98;;;;;;;;;;5073696;28;20107;-70
2022/11/26 05:20:06;;;;;;;13.35;9.05;;;;;;;;;;5073625;28;20033;-69
2022/11/26 05:22:31;;;;;;;12.50;8.93;;;;;;;;;;5073531;28;20032;-68
2022/11/26 05:25:00;;;;;;;11.95;8.20;;;;;;;;;;5073092;28;20020;-65
2022/11/26 05:27:26;;;;;;;12.57;8.95;;;;;;;;;;5056315;28;20028;-64
2022/11/26 05:29:51;;;;;;;10.68;8.25;;;;;;;;;;5073658;28;20024;-61
2022/11/26 05:32:17;;;;;;;12.15;8.25;;;;;;;;;;5073876;28;20108;-60
2022/11/26 05:34:42;;;;;;;9.55;7.53;;;;;;;;;;5073593;28;20020;-61
2022/11/26 05:37:08;;;;;;;10.98;8.00;;;;;;;;;;5073573;28;20450;-60
2022/11/26 05:39:34;;;;;;;11.35;7.90;;;;;;;;;;5055399;28;20473;-61
2022/11/26 05:41:59;;;;;;;11.50;8.15;;;;;;;;;;5073545;28;20021;-68
2022/11/26 05:44:25;;;;;;;12.13;8.43;;;;;;;;;;5055320;28;20133;-70
2022/11/26 05:46:50;;;;;;;12.07;8.80;;;;;;;;;;5073223;28;20062;-69
2022/11/26 05:49:16;;;;;;;11.75;8.50;;;;;;;;;;5072711;28;20700;-62
2022/11/26 05:51:42;;;;;;;11.40;8.32;;;;;;;;;;5073098;28;20406;-68
2022/11/26 05:54:11;;;;;;;12.80;8.52;;;;;;;;;;5073047;28;20159;-61
2022/11/26 05:56:37;;;;;;;13.57;8.77;;;;;;;;;;5073126;28;20036;-61
2022/11/26 05:59:02;;;;;;;11.23;8.38;;;;;;;;;;5072985;28;20036;-62
2022/11/26 06:01:28;;;;;;;10.80;8.05;;;;;;;;;;5072992;28;20060;-62
2022/11/26 06:03:53;;;;;;;11.85;8.48;;;;;;;;;;5072848;28;20024;-63
2022/11/26 06:06:19;;;;;;;10.85;8.02;;;;;;;;;;5072854;28;20083;-61
2022/11/26 06:08:44;;;;;;;12.05;8.43;;;;;;;;;;5072982;28;20028;-61
2022/11/26 06:11:12;;;;;;;10.63;7.63;;;;;;;;;;5072970;28;20450;-62
2022/11/26 06:13:38;;;;;;;11.15;8.35;;;;;;;;;;5072757;28;20028;-61
2022/11/26 06:16:03;;;;;;;12.52;8.20;;;;;;;;;;5072640;28;20094;-63
2022/11/26 06:18:29;;;;;;;12.73;8.20;;;;;;;;;;5072586;28;20048;-61
2022/11/26 06:20:59;;;;;;;11.13;7.70;;;;;;;;;;5054716;28;20065;-60
2022/11/26 06:23:24;;;;;;;12.02;8.98;;;;;;;;;;5072341;28;20048;-60
2022/11/26 06:25:50;;;;;;;11.55;8.48;;;;;;;;;;5072583;28;20068;-61
2022/11/26 06:28:15;;;;;;;10.90;7.97;;;;;;;;;;5072509;28;20021;-60
2022/11/26 06:30:44;;;;;;;10.80;7.65;;;;;;;;;;5072471;28;20028;-60
2022/11/26 06:33:10;;;;;;;10.57;7.88;;;;;;;;;;5072487;28;20032;-61
2022/11/26 06:35:35;;;;;;;10.77;8.10;;;;;;;;;;5072448;28;20385;-61
2022/11/26 06:38:01;;;;;;;12.20;8.10;;;;;;;;;;5072450;28;20024;-61
2022/11/26 06:40:27;;;;;;;11.85;8.02;;;;;;;;;;5072454;28;20033;-61
2022/11/26 06:42:52;;;;;;;11.70;7.97;;;;;;;;;;5072365;28;20052;-60
2022/11/26 06:45:19;;;;;;;10.43;7.90;;;;;;;;;;5054372;28;20035;-60
2022/11/26 06:47:49;;;;;;;11.88;8.02;;;;;;;;;;5072473;28;20020;-63
2022/11/26 06:50:20;;;;;;;10.50;7.70;;;;;;;;;;5072641;28;20471;-63
2022/11/26 06:52:50;;;;;;;12.02;8.25;;;;;;;;;;5055437;28;20028;-67
2022/11/26 06:55:16;;;;;;;11.38;7.60;;;;;;;;;;5054293;28;20476;-67
2022/11/26 06:57:41;;;;;;;9.13;7.47;;;;;;;;;;5072154;28;20086;-63
2022/11/26 07:00:08;;;;;;;12.68;8.38;;;;;;;;;;5054726;28;20025;-61
2022/11/26 07:02:33;;;;;;;11.70;8.00;;;;;;;;;;5076142;28;20031;-65
2022/11/26 07:04:59;;;;;;;10.85;8.15;;;;;;;;;;5076565;28;20103;-69
2022/11/26 07:07:24;;;;;;;11.63;7.70;;;;;;;;;;5076253;28;20545;-67
2022/11/26 07:09:50;;;;;;;12.88;7.90;;;;;;;;;;5076098;28;20024;-61
2022/11/26 07:12:16;;;;;;;9.65;7.28;;;;;;;;;;5076194;28;20029;-67
2022/11/26 07:14:42;;;;;;;11.18;7.88;;;;;;;;;;5075936;28;20037;-63
2022/11/26 07:17:08;;;;;;;11.00;7.97;;;;;;;;;;5076057;28;20020;-66
2022/11/26 07:19:33;;;;;;;10.65;7.60;;;;;;;;;;5075953;28;20357;-61
2022/11/26 07:21:59;;;;;;;9.63;7.00;;;;;;;;;;5076084;28;20169;-61
2022/11/26 07:24:24;;;;;;;11.80;8.00;;;;;;;;;;5058009;28;20028;-63
2022/11/26 07:26:50;;;;;;;10.50;7.13;;;;;;;;;;5076012;28;20073;-61
2022/11/26 07:29:16;;;;;;;9.30;7.38;;;;;;;;;;5057902;28;20084;-60
2022/11/26 07:31:41;;;;;;;10.00;7.32;;;;;;;;;;5075872;28;20055;-66
2022/11/26 07:34:07;;;;;;;10.43;7.38;;;;;;;;;;5075695;28;20028;-62
2022/11/26 07:36:33;;;;;;;10.43;7.05;;;;;;;;;;5076037;28;20389;-61
2022/11/26 07:39:00;;;;;;;11.43;7.75;;;;;;;;;;5058031;28;20028;-61
2022/11/26 07:41:28;;;;;;;12.00;8.13;;;;;;;;;;5057781;28;20063;-69
2022/11/26 07:43:53;;;;;;;10.05;7.22;;;;;;;;;;5075561;28;20107;-63
2022/11/26 07:46:21;;;;;;;9.75;7.15;;;;;;;;;;5075819;28;20159;-62
2022/11/26 07:48:47;;;;;;;10.20;7.75;;;;;;;;;;5075407;28;20034;-68
2022/11/26 07:51:17;;;;;;;11.05;7.13;;;;;;;;;;5075447;28;20027;-65
2022/11/26 07:53:42;;;;;;;10.73;7.72;;;;;;;;;;5075360;28;20032;-61
2022/11/26 07:56:08;;;;;;;9.73;7.50;;;;;;;;;;5075345;28;20051;-64
2022/11/26 07:58:34;;;;;;;10.73;7.10;;;;;;;;;;5075320;28;20028;-67
2022/11/26 08:01:14;;;;;;;11.00;7.75;;;;;;;;;;5075264;28;20058;-66
2022/11/26 08:03:42;;;;;;;9.13;7.25;;;;;;;;;;5075293;28;20472;-70
2022/11/26 08:06:09;;;;;;;11.50;8.00;;;;;;;;;;5040937;28;20466;-70
2022/11/26 08:08:35;;;;;;;11.20;7.60;;;;;;;;;;5075204;28;20025;-69
2022/11/26 08:11:02;;;;;;;9.52;7.35;;;;;;;;;;5075020;28;20035;-70
2022/11/26 08:13:28;;;;;;;9.95;7.32;;;;;;;;;;5074766;28;20028;-67
2022/11/26 08:15:54;;;;;;;10.50;7.20;;;;;;;;;;5074947;28;20078;-71
2022/11/26 08:18:19;;;;;;;9.60;7.28;;;;;;;;;;5075086;28;20108;-65
2022/11/26 08:20:56;;;;;;;10.43;7.60;;;;;;;;;;5057078;28;20047;-68
2022/11/26 08:23:22;;;;;;;9.40;7.05;;;;;;;;;;5074964;28;20483;-69
2022/11/26 08:25:49;;;;;;;10.98;7.30;;;;;;;;;;5074912;28;20470;-67
2022/11/26 08:28:15;;;;;;;10.98;7.32;;;;;;;;;;5074827;28;20103;-70
2022/11/26 08:30:40;;;;;;;16.38;7.15;;;;;;;;;;5074785;28;20116;-61
2022/11/26 08:33:06;;;;;;;10.73;7.55;;;;;;;;;;5074734;28;20039;-69
2022/11/26 08:35:34;;;;;;;12.27;7.80;;;;;;;;;;5074605;28;20119;-69
2022/11/26 08:37:59;;;;;;;9.18;6.75;;;;;;;;;;5074819;28;20043;-62
2022/11/26 08:40:25;;;;;;;11.07;7.30;;;;;;;;;;5074516;28;20020;-70
2022/11/26 08:42:50;;;;;;;9.75;7.22;;;;;;;;;;5074728;28;20082;-68
2022/11/26 08:45:16;;;;;;;10.70;7.32;;;;;;;;;;5074783;28;20032;-68
2022/11/26 08:47:41;;;;;;;10.50;7.38;;;;;;;;;;5074707;28;20345;-61
2022/11/26 08:50:08;;;;;;;10.02;7.75;;;;;;;;;;5074115;28;20503;-62
2022/11/26 08:52:33;;;;;;;9.73;7.28;;;;;;;;;;5056511;28;20063;-65
2022/11/26 08:54:59;;;;;;;8.85;7.00;;;;;;;;;;5074604;28;20405;-61
2022/11/26 08:57:24;;;;;;;10.43;7.45;;;;;;;;;;5056136;28;20021;-67
2022/11/26 08:59:50;;;;;;;11.50;7.57;;;;;;;;;;5074213;28;20043;-65
2022/11/26 09:02:16;;;;;;;11.35;7.20;;;;;;;;;;5074129;28;20026;-62
2022/11/26 09:04:42;;;;;;;10.20;7.15;;;;;;;;;;5074381;28;20024;-67
2022/11/26 09:07:07;;;;;;;11.57;8.13;;;;;;;;;;5055971;28;20021;-64
2022/11/26 09:09:33;;;;;;;9.85;7.18;;;;;;;;;;5073832;28;20032;-68
2022/11/26 09:12:01;;;;;;;10.23;7.75;;;;;;;;;;5073946;28;20063;-71
2022/11/26 09:14:30;;;;;;;11.10;7.82;;;;;;;;;;5071405;28;20119;-64
2022/11/26 09:16:57;;;;;;;10.15;7.43;;;;;;;;;;5051072;28;20028;-70
2022/11/26 09:19:24;;;;;;;9.57;7.30;;;;;;;;;;5069281;28;20028;-69
2022/11/26 09:21:50;;;;;;;9.73;7.10;;;;;;;;;;5068631;28;20024;-60
2022/11/26 09:24:16;;;;;;;10.52;7.60;;;;;;;;;;5071377;28;20016;-68
2022/11/26 09:26:42;;;;;;;9.63;6.97;;;;;;;;;;5072857;28;20111;-69
2022/11/26 09:29:13;;;;;;;10.25;7.25;;;;;;;;;;5071191;28;20105;-60
2022/11/26 09:31:38;;;;;;;;;;;;;;;;;;5053651;28;20503;-69
2022/11/26 09:34:04;;;;;;;10.40;7.25;;;;;;;;;;5072321;28;19956;-61
2022/11/26 09:36:29;;;;;;;13.38;7.43;;;;;;;;;;5072270;28;20021;-62
2022/11/26 09:38:57;;;;;;;8.63;6.70;;;;;;;;;;5071673;28;20043;-59
2022/11/26 09:41:38;;;;;;;9.98;7.43;;;;;;;;;;5076955;28;21931;-69
2022/11/26 09:44:13;;;;;;;9.43;7.47;;;;;;;;;;5065763;28;20025;-68
2022/11/26 09:46:50;;;;;;;10.68;7.82;;;;;;;;;;5072502;28;20034;-68
2022/11/26 09:49:17;;;;;;;9.35;7.20;;;;;;;;;;5073190;28;20514;-68
2022/11/26 09:51:48;;;;;;;9.27;7.20;;;;;;;;;;5073121;28;20025;-68
2022/11/26 09:54:17;;;;;;;9.60;7.25;;;;;;;;;;5056909;28;20028;-69
2022/11/26 09:56:43;;;;;;;11.23;7.68;;;;;;;;;;5082644;28;20411;-62
2022/11/26 09:59:16;;;;;;;10.00;7.40;;;;;;;;;;5070447;28;20020;-69
2022/11/26 10:01:42;;;;;;;10.65;7.25;;;;;;;;;;5069187;28;20472;-61
2022/11/26 10:04:15;;;;;;;9.93;7.78;;;;;;;;;;5077960;28;20028;-59
2022/11/26 10:07:06;;;;;;;9.75;7.50;;;;;;;;;;5059729;28;20032;-64
2022/11/26 10:09:55;;;;;;;30.33;21.05;;;;;;;;;;5072716;28;20082;-67
2022/11/26 10:12:40;;;;;;;28.45;18.65;;;;;;;;;;5081293;28;20025;-66
2022/11/26 10:15:32;;;;;;;17.95;13.05;;;;;;;;;;5081956;28;20044;-69
2022/11/26 10:18:19;;;;;;;15.35;11.23;;;;;;;;;;5086850;28;20483;-70
2022/11/26 10:21:07;;;;;;;14.57;9.48;;;;;;;;;;5092956;28;20030;-69
2022/11/26 10:23:39;;;;;;;11.77;8.73;;;;;;;;;;5090820;28;20161;-68
2022/11/26 10:26:04;;;;;;;12.07;9.00;;;;;;;;;;5072630;28;20044;-69
2022/11/26 10:28:38;;;;;;;13.35;9.00;;;;;;;;;;5071770;28;20473;-68
2022/11/26 10:31:16;;;;;;;12.27;8.70;;;;;;;;;;5072156;28;20025;-69
2022/11/26 10:34:09;;;;;;;14.68;8.90;;;;;;;;;;5071446;28;20028;-67
2022/11/26 10:36:38;;;;;;;12.45;8.93;;;;;;;;;;5072435;28;20059;-68
2022/11/26 10:39:06;;;;;;;12.98;8.50;;;;;;;;;;5071591;28;20024;-69
2022/11/26 10:41:34;;;;;;;11.55;8.80;;;;;;;;;;5071658;28;20080;-67
2022/11/26 10:44:28;;;;;;;12.02;8.38;;;;;;;;;;5054407;28;20498;-64
2022/11/26 10:46:54;;;;;;;10.60;8.60;;;;;;;;;;5072966;28;20051;-68
2022/11/26 10:49:29;;;;;;;11.43;8.20;;;;;;;;;;5072205;28;20468;-68
2022/11/26 10:52:01;;;;;;;11.50;8.43;;;;;;;;;;5072385;28;20587;-68
2022/11/26 10:54:33;;;;;;;12.38;8.88;;;;;;;;;;5054815;28;20376;-66
2022/11/26 10:57:07;;;;;;;16.17;8.55;;;;;;;;;;5072435;28;20095;-66
2022/11/26 10:59:52;;;;;;;12.93;9.07;;;;;;;;;;5072337;28;20035;-68
2022/11/26 11:02:21;;;;;;;11.30;8.23;;;;;;;;;;5072265;28;20056;-69
2022/11/26 11:04:53;;;;;;;11.00;8.07;;;;;;;;;;5072283;28;20028;-63
2022/11/26 11:07:31;;;;;;;12.07;8.38;;;;;;;;;;5072421;28;20028;-67
2022/11/26 11:10:08;;;;;;;15.82;8.50;;;;;;;;;;5072417;28;20170;-68
2022/11/26 11:12:35;;;;;;;11.55;8.40;;;;;;;;;;5072433;28;20028;-67
2022/11/26 11:15:19;;;;;;;10.60;8.30;;;;;;;;;;5054042;28;20082;-69
2022/11/26 11:17:53;;;;;;;11.55;8.18;;;;;;;;;;5054484;28;20377;-67
2022/11/26 11:20:28;;;;;;;11.35;8.40;;;;;;;;;;5072053;28;20048;-66
2022/11/26 11:23:09;;;;;;;12.07;9.07;;;;;;;;;;5072079;28;20028;-68
2022/11/26 11:25:38;;;;;;;11.13;8.52;;;;;;;;;;5072080;28;20028;-66
2022/11/26 11:28:17;;;;;;;11.30;8.65;;;;;;;;;;5072016;28;20028;-67
2022/11/26 11:30:45;;;;;;;11.15;8.55;;;;;;;;;;5071970;28;20024;-69
2022/11/26 11:33:25;;;;;;;11.35;8.18;;;;;;;;;;5071997;28;20029;-67
2022/11/26 11:36:20;;;;;;;;;;;;;;;;;;5072669;28;20071;-67
2022/11/26 11:38:50;;;;;;;13.77;8.20;;;;;;;;;;5058596;28;20352;-68
2022/11/26 11:41:41;;;;;;;12.18;8.85;;;;;;;;;;5054091;28;20028;-68
2022/11/26 11:44:19;;;;;;;11.43;7.78;;;;;;;;;;5071904;28;20059;-68
2022/11/26 11:47:07;;;;;;;11.73;8.45;;;;;;;;;;5072670;28;20020;-68
2022/11/26 11:49:55;;;;;;;12.38;8.88;;;;;;;;;;5057659;28;20033;-68
2022/11/26 11:52:46;;;;;;;10.65;8.30;;;;;;;;;;5075534;28;20338;-68
2022/11/26 11:55:12;;;;;;;12.25;8.57;;;;;;;;;;5052271;28;20028;-68
2022/11/26 11:57:59;;;;;;;11.07;8.25;;;;;;;;;;5075403;28;20085;-68
2022/11/26 12:00:58;;;;;;;10.82;8.00;;;;;;;;;;5075348;28;20050;-69
2022/11/26 12:03:58;;;;;;;11.23;8.02;;;;;;;;;;5075430;28;20495;-64
2022/11/26 12:06:33;;;;;;;11.85;7.85;;;;;;;;;;5075364;28;20116;-68
2022/11/26 12:09:15;;;;;;;10.93;8.63;;;;;;;;;;5075208;28;20365;-69
2022/11/26 12:12:03;;;;;;;11.50;8.05;;;;;;;;;;5075214;28;20461;-66
2022/11/26 12:15:02;;;;;;;11.48;7.82;;;;;;;;;;5020019;28;20392;-63
2022/11/26 12:17:43;;;;;;;10.50;8.00;;;;;;;;;;5057430;28;20048;-60
2022/11/26 12:20:15;;;;;;;11.50;8.45;;;;;;;;;;5075008;28;20495;-63
2022/11/26 12:23:02;;;;;;;10.70;8.25;;;;;;;;;;5074967;28;20460;-61
2022/11/26 12:25:36;;;;;;;11.80;8.27;;;;;;;;;;5074368;28;20373;-60
2022/11/26 12:28:11;;;;;;;11.20;7.93;;;;;;;;;;5074918;28;20058;-60
2022/11/26 12:31:05;;;;;;;11.52;8.00;;;;;;;;;;5074792;28;20397;-63
2022/11/26 12:33:42;;;;;;;10.65;8.13;;;;;;;;;;5065126;28;20037;-67
2022/11/26 12:36:35;;;;;;;11.68;8.40;;;;;;;;;;5074754;28;20020;-69
2022/11/26 12:39:25;;;;;;;11.38;8.57;;;;;;;;;;5074604;28;20029;-68
2022/11/26 12:41:57;;;;;;;10.90;8.30;;;;;;;;;;5074712;28;20047;-69
2022/11/26 12:44:36;;;;;;;10.55;8.35;;;;;;;;;;5074586;28;20049;-68
2022/11/26 12:47:29;;;;;;;10.88;8.15;;;;;;;;;;5074868;28;20032;-68
2022/11/26 12:50:03;;;;;;;11.73;8.93;;;;;;;;;;5056687;28;20438;-71
2022/11/26 12:52:57;;;;;;;11.00;8.23;;;;;;;;;;5074437;28;20073;-68
2022/11/26 12:55:49;;;;;;;10.95;8.07;;;;;;;;;;5074398;28;20028;-68
2022/11/26 12:58:20;;;;;;;11.15;8.30;;;;;;;;;;5073261;28;20032;-61
2022/11/26 13:00:48;;;;;;;11.23;8.00;;;;;;;;;;5074232;28;20025;-61
2022/11/26 13:03:17;;;;;;;9.95;8.48;;;;;;;;;;5074454;28;20020;-68
2022/11/26 13:06:18;;;;;;;11.18;8.07;;;;;;;;;;5074241;28;20179;-68
2022/11/26 13:09:01;;;;;;;11.95;8.73;;;;;;;;;;5074459;28;20111;-62
2022/11/26 13:12:03;;;;;;;12.20;9.07;;;;;;;;;;5073873;28;20129;-62
2022/11/26 13:14:51;;;;;;;11.73;8.43;;;;;;;;;;5089606;28;20375;-63
2022/11/26 13:17:20;;;;;;;10.45;7.80;;;;;;;;;;5094457;28;20446;-65
2022/11/26 13:20:04;;;;;;;10.73;8.20;;;;;;;;;;5091271;28;20432;-62
2022/11/26 13:22:44;;;;;;;11.63;8.13;;;;;;;;;;5080857;28;20482;-63
2022/11/26 13:25:37;;;;;;;12.90;8.63;;;;;;;;;;5079080;28;20016;-61
2022/11/26 13:28:18;;;;;;;11.57;8.48;;;;;;;;;;5081711;28;20040;-65
2022/11/26 13:31:02;;;;;;;9.55;8.10;;;;;;;;;;5081095;28;20027;-71
2022/11/26 13:33:44;;;;;;;11.82;8.82;;;;;;;;;;5082114;28;20024;-70
2022/11/26 13:36:31;;;;;;;12.27;8.70;;;;;;;;;;5082807;28;20082;-70
2022/11/26 13:39:14;;;;;;;12.20;8.63;;;;;;;;;;5084244;28;20028;-71
2022/11/26 13:41:56;;;;;;;11.35;8.38;;;;;;;;;;5079949;28;20085;-70
2022/11/26 13:45:06;;;;;;;11.80;8.38;;;;;;;;;;5080170;28;20059;-71
2022/11/26 13:47:52;;;;;;;13.20;8.40;;;;;;;;;;5075096;28;20048;-65
2022/11/26 13:50:42;;;;;;;11.07;8.70;;;;;;;;;;5072932;28;20044;-68
2022/11/26 13:53:31;;;;;;;11.25;8.40;;;;;;;;;;5073225;28;20027;-63
2022/11/26 13:56:06;;;;;;;11.90;8.50;;;;;;;;;;5055044;28;20071;-61
2022/11/26 13:58:49;;;;;;;11.02;8.55;;;;;;;;;;5080834;28;20024;-61
2022/11/26 14:01:39;;;;;;;10.95;8.38;;;;;;;;;;5081508;28;20052;-68
2022/11/26 14:04:25;;;;;;;10.57;7.85;;;;;;;;;;5085587;28;20055;-68
2022/11/26 14:07:19;;;;;;;11.80;8.45;;;;;;;;;;5081949;28;20073;-69
2022/11/26 14:09:53;;;;;;;12.25;8.65;;;;;;;;;;5079584;28;20039;-64
2022/11/26 14:12:20;;;;;;;10.43;8.40;;;;;;;;;;5092922;28;20081;-68
2022/11/26 14:14:48;;;;;;;13.57;9.38;;;;;;;;;;5091162;28;20048;-69
2022/11/26 14:17:15;;;;;;;12.45;8.65;;;;;;;;;;5091390;28;20044;-68
2022/11/26 14:19:43;;;;;;;11.98;8.68;;;;;;;;;;5091255;28;20024;-68
2022/11/26 14:22:18;;;;;;;11.27;8.77;;;;;;;;;;5073102;28;20383;-69
2022/11/26 14:24:49;;;;;;;10.77;8.50;;;;;;;;;;5091229;28;20498;-66
2022/11/26 14:27:26;;;;;;;11.65;8.27;;;;;;;;;;5091259;28;20040;-67
2022/11/26 14:30:07;;;;;;;12.82;8.82;;;;;;;;;;5091073;28;20028;-65
2022/11/26 14:33:11;;;;;;;11.82;8.15;;;;;;;;;;5091223;28;20099;-69
2022/11/26 14:35:39;;;;;;;11.18;8.60;;;;;;;;;;5091046;28;20024;-63
2022/11/26 14:38:20;;;;;;;9.98;8.00;;;;;;;;;;5091172;28;20024;-66
2022/11/26 14:40:58;;;;;;;10.60;8.43;;;;;;;;;;5091317;28;20055;-62
2022/11/26 14:43:24;;;;;;;12.27;8.60;;;;;;;;;;5091143;28;20085;-69
2022/11/26 14:46:04;;;;;;;11.45;8.23;;;;;;;;;;5090955;28;20032;-69
2022/11/26 14:48:32;;;;;;;11.25;7.97;;;;;;;;;;5091242;28;20024;-65
2022/11/26 14:51:00;;;;;;;13.15;8.80;;;;;;;;;;5090952;28;20471;-66
2022/11/26 14:53:32;;;;;;;11.45;8.60;;;;;;;;;;5090874;28;20035;-67
2022/11/26 14:55:59;;;;;;;11.90;8.52;;;;;;;;;;5090895;28;20032;-69